Time;durP1;ratioP1;P1;durP2;ratioP2;P2;SDS_P1;SDS_P2;PMS_P1;PMS_P2;Temp;Humidity;BMP_temperature;BMP_pressure;BME280_temperature;BME280_humidity;BME280_pressure;Samples;Min_cycle;Max_cycle;Signal;HPM_P1;HPM_P2
2024/01/27 06:02:12;;;;;;;6.85;2.70;;;2.30;88.80;;;;;;4015433;27;20118;-74
2024/01/27 06:04:14;;;;;;;10.65;3.30;;;2.30;88.50;;;;;;4102680;29;20444;-74
2024/01/27 06:06:16;;;;;;;8.50;2.50;;;2.30;88.30;;;;;;4102774;29;20110;-74
2024/01/27 06:08:18;;;;;;;6.82;3.05;;;2.20;88.70;;;;;;4102674;29;20051;-74
2024/01/27 06:10:20;;;;;;;7.80;2.83;;;2.20;90.00;;;;;;4102573;29;20044;-74
2024/01/27 06:12:22;;;;;;;8.13;3.17;;;2.20;88.70;;;;;;4102644;29;20069;-74
2024/01/27 06:14:25;;;;;;;6.15;2.28;;;2.20;88.60;;;;;;4102705;29;20420;-74
2024/01/27 06:16:26;;;;;;;6.72;2.67;;;2.20;88.20;;;;;;4102637;29;20096;-74
2024/01/27 06:18:30;;;;;;;10.68;3.10;;;2.10;88.10;;;;;;4102576;29;20508;-75
2024/01/27 06:20:31;;;;;;;8.98;2.83;;;2.10;88.40;;;;;;4102231;29;20094;-74
2024/01/27 06:22:33;;;;;;;7.43;2.83;;;2.10;88.00;;;;;;4102405;29;20449;-73
2024/01/27 06:24:35;;;;;;;8.23;2.60;;;2.20;88.70;;;;;;4106677;28;20101;-74
2024/01/27 06:26:37;;;;;;;6.03;2.60;;;2.20;88.30;;;;;;4093525;28;20051;-74
2024/01/27 06:28:39;;;;;;;7.60;2.72;;;2.10;88.00;;;;;;4092630;29;20150;-74
2024/01/27 06:30:40;;;;;;;7.30;2.70;;;2.20;88.00;;;;;;4090044;29;20103;-74
2024/01/27 06:32:41;;;;;;;7.93;2.47;;;2.20;87.90;;;;;;4094381;29;20441;-74
2024/01/27 06:34:45;;;;;;;8.68;2.65;;;2.10;87.20;;;;;;4102348;29;20058;-74
2024/01/27 06:36:45;;;;;;;7.57;3.00;;;2.10;87.20;;;;;;4095328;28;20043;-74
2024/01/27 06:38:47;;;;;;;5.88;2.58;;;2.10;87.10;;;;;;4095621;29;20098;-74
2024/01/27 06:40:49;;;;;;;7.05;2.67;;;2.20;87.20;;;;;;4095719;29;20103;-74
2024/01/27 06:42:52;;;;;;;5.03;2.53;;;2.10;87.10;;;;;;4095539;28;20098;-74
2024/01/27 06:44:53;;;;;;;11.50;3.80;;;2.20;87.50;;;;;;4101083;29;20051;-74
2024/01/27 06:46:55;;;;;;;8.07;3.00;;;2.20;87.20;;;;;;4099115;28;20106;-74
2024/01/27 06:48:57;;;;;;;6.60;2.92;;;2.20;87.20;;;;;;4093065;28;20110;-74
2024/01/27 06:51:00;;;;;;;7.28;2.90;;;2.20;87.20;;;;;;4086149;28;20461;-74
2024/01/27 06:53:02;;;;;;;8.43;3.00;;;2.20;87.40;;;;;;4100465;29;20500;-74
2024/01/27 06:55:06;;;;;;;9.15;2.85;;;2.10;87.60;;;;;;4102089;29;20122;-74
2024/01/27 06:57:19;;;;;;;6.78;3.28;;;2.10;87.70;;;;;;4101548;29;20134;-74
2024/01/27 06:59:21;;;;;;;7.35;2.92;;;2.20;87.20;;;;;;4102051;29;20162;-74
2024/01/27 07:01:24;;;;;;;7.57;2.50;;;2.10;86.80;;;;;;4101769;29;20488;-73
2024/01/27 07:03:25;;;;;;;7.80;2.85;;;2.10;87.00;;;;;;4105453;28;20042;-74
2024/01/27 07:05:27;;;;;;;7.13;2.85;;;2.10;87.30;;;;;;4117796;28;20105;-75
2024/01/27 07:07:30;;;;;;;7.25;3.00;;;2.10;87.60;;;;;;4099144;28;20047;-74
2024/01/27 07:09:32;;;;;;;8.10;2.75;;;2.10;87.60;;;;;;4099959;28;20047;-73
2024/01/27 07:11:34;;;;;;;8.93;2.90;;;2.10;87.50;;;;;;4098351;28;20442;-75
2024/01/27 07:13:36;;;;;;;7.22;2.95;;;2.00;87.60;;;;;;4100105;29;20079;-75
2024/01/27 07:15:38;;;;;;;6.65;2.70;;;1.90;87.70;;;;;;4096531;28;20058;-76
2024/01/27 07:17:40;;;;;;;9.27;2.88;;;1.90;87.40;;;;;;4100151;28;20110;-76
2024/01/27 07:19:42;;;;;;;6.88;3.00;;;1.90;87.40;;;;;;4101872;29;20047;-75
2024/01/27 07:21:43;;;;;;;11.15;4.47;;;2.00;87.40;;;;;;4093798;28;20043;-75
2024/01/27 07:23:46;;;;;;;11.27;3.90;;;1.90;87.60;;;;;;4098384;28;20078;-75
2024/01/27 07:25:47;;;;;;;6.10;2.78;;;1.90;87.50;;;;;;4101231;29;20090;-76
2024/01/27 07:27:49;;;;;;;8.73;3.35;;;2.00;87.00;;;;;;4100276;28;20058;-76
2024/01/27 07:29:51;;;;;;;7.57;3.72;;;2.00;87.20;;;;;;4096532;28;20118;-75
2024/01/27 07:31:53;;;;;;;10.32;3.80;;;1.90;87.10;;;;;;4098368;28;20047;-75
2024/01/27 07:33:54;;;;;;;9.48;3.90;;;1.90;87.40;;;;;;4099567;29;20134;-75
2024/01/27 07:35:58;;;;;;;10.27;3.85;;;2.00;87.10;;;;;;4099752;29;20047;-75
2024/01/27 07:37:59;;;;;;;29.75;11.10;;;2.00;87.10;;;;;;4099329;29;20043;-75
2024/01/27 07:40:02;;;;;;;19.90;9.88;;;2.00;86.50;;;;;;4098955;29;20109;-75
2024/01/27 07:42:04;;;;;;;17.80;8.32;;;1.90;86.30;;;;;;4099474;29;20050;-75
2024/01/27 07:44:10;;;;;;;17.30;8.35;;;1.80;86.60;;;;;;4099188;29;20480;-75
2024/01/27 07:46:12;;;;;;;13.80;7.05;;;1.80;86.50;;;;;;4098953;29;20131;-75
2024/01/27 07:48:13;;;;;;;9.90;5.70;;;1.80;86.70;;;;;;4099494;29;20047;-75
2024/01/27 07:50:15;;;;;;;14.13;6.50;;;1.90;86.90;;;;;;4098858;28;20540;-75
2024/01/27 07:52:17;;;;;;;15.02;6.65;;;1.90;86.70;;;;;;4091450;28;20496;-75
2024/01/27 07:54:18;;;;;;;17.58;7.80;;;1.90;86.60;;;;;;4095817;28;20052;-75
2024/01/27 07:56:22;;;;;;;18.20;8.52;;;1.90;86.60;;;;;;4098787;29;20452;-75
2024/01/27 07:58:22;;;;;;;20.80;9.23;;;1.90;86.50;;;;;;4098547;29;20074;-75
2024/01/27 08:00:24;;;;;;;18.73;9.20;;;1.80;86.90;;;;;;4098947;29;20051;-75
2024/01/27 08:02:26;;;;;;;16.15;8.05;;;1.80;87.30;;;;;;4098609;28;20091;-75
2024/01/27 08:04:28;;;;;;;14.38;6.80;;;1.70;87.00;;;;;;4098495;28;20122;-74
2024/01/27 08:06:30;;;;;;;13.75;5.28;;;1.80;87.40;;;;;;4096670;28;20051;-75
2024/01/27 08:08:32;;;;;;;9.90;4.55;;;1.80;88.10;;;;;;4098298;28;20535;-75
2024/01/27 08:10:34;;;;;;;11.50;4.53;;;1.80;88.50;;;;;;4099497;29;20090;-75
2024/01/27 08:12:36;;;;;;;10.30;4.47;;;1.80;88.60;;;;;;4098894;29;20130;-74
2024/01/27 08:14:39;;;;;;;10.68;5.10;;;1.90;88.80;;;;;;4098892;29;20055;-75
2024/01/27 08:16:41;;;;;;;8.07;4.05;;;1.90;89.10;;;;;;4098891;29;20043;-75
2024/01/27 08:18:44;;;;;;;10.90;5.07;;;2.00;89.20;;;;;;4098779;28;20048;-75
2024/01/27 08:20:46;;;;;;;8.85;4.43;;;2.00;89.30;;;;;;4095938;28;20127;-75
2024/01/27 08:22:50;;;;;;;10.23;5.10;;;2.10;88.90;;;;;;4097084;28;20488;-75
2024/01/27 08:24:51;;;;;;;10.38;4.95;;;2.20;88.80;;;;;;4097942;28;20400;-74
2024/01/27 08:26:53;;;;;;;10.93;5.68;;;2.20;88.50;;;;;;4098490;28;20055;-74
2024/01/27 08:28:58;;;;;;;9.18;5.10;;;2.30;88.20;;;;;;4098552;29;20103;-75
2024/01/27 08:31:01;;;;;;;12.43;5.47;;;2.30;87.70;;;;;;4098322;28;20066;-75
2024/01/27 08:33:03;;;;;;;11.60;5.82;;;2.20;89.00;;;;;;4098341;29;20047;-76
2024/01/27 08:35:07;;;;;;;10.65;5.78;;;2.10;89.90;;;;;;4098514;28;20051;-75
2024/01/27 08:37:18;;;;;;;12.18;6.03;;;1.90;90.10;;;;;;4098654;29;20971;-75
2024/01/27 08:39:20;;;;;;;13.82;6.45;;;1.80;90.60;;;;;;4098533;29;20043;-75
2024/01/27 08:41:22;;;;;;;9.27;5.65;;;1.80;90.70;;;;;;4098345;29;20097;-76
2024/01/27 08:43:23;;;;;;;10.52;6.00;;;1.90;90.50;;;;;;4098143;29;20452;-75
2024/01/27 08:45:26;;;;;;;12.00;5.60;;;2.10;90.30;;;;;;4098361;28;20048;-75
2024/01/27 08:47:28;;;;;;;10.40;5.10;;;2.20;90.20;;;;;;4098361;29;20043;-76
2024/01/27 08:49:30;;;;;;;9.63;5.40;;;2.20;90.00;;;;;;4098333;29;20448;-77
2024/01/27 08:51:31;;;;;;;11.25;5.35;;;2.30;90.00;;;;;;4098403;29;20050;-76
2024/01/27 08:53:33;;;;;;;9.80;5.20;;;2.40;90.00;;;;;;4098041;29;20051;-75
2024/01/27 08:55:35;;;;;;;9.43;5.15;;;2.40;89.70;;;;;;4097715;28;20086;-76
2024/01/27 08:57:38;;;;;;;10.40;5.40;;;2.50;89.80;;;;;;4098455;28;20473;-75
2024/01/27 08:59:39;;;;;;;12.13;6.28;;;2.50;89.70;;;;;;4098066;29;20122;-76
2024/01/27 09:01:43;;;;;;;11.57;7.25;;;2.60;89.80;;;;;;4087001;28;20055;-75
2024/01/27 09:03:45;;;;;;;10.07;6.75;;;2.60;89.80;;;;;;4082596;29;20577;-75
2024/01/27 09:05:46;;;;;;;14.55;6.93;;;2.70;89.70;;;;;;4082415;29;20043;-76
2024/01/27 09:07:47;;;;;;;14.85;7.50;;;2.70;89.80;;;;;;4082089;29;20088;-76
2024/01/27 09:09:48;;;;;;;13.65;6.30;;;2.70;89.80;;;;;;4082794;29;20107;-76
2024/01/27 09:11:50;;;;;;;12.27;6.00;;;2.80;90.00;;;;;;4082873;29;20043;-76
2024/01/27 09:13:51;;;;;;;12.73;5.60;;;2.90;89.50;;;;;;4082062;29;20043;-77
2024/01/27 09:15:53;;;;;;;13.52;6.28;;;2.90;89.30;;;;;;4082528;29;20142;-76
2024/01/27 09:17:56;;;;;;;12.82;6.30;;;3.00;89.00;;;;;;4082253;29;20103;-76
2024/01/27 09:19:58;;;;;;;11.40;5.93;;;2.90;88.90;;;;;;4081424;29;20115;-75
2024/01/27 09:22:00;;;;;;;12.15;5.72;;;2.90;89.40;;;;;;4075835;29;20119;-77
2024/01/27 09:24:02;;;;;;;12.85;6.55;;;2.90;90.00;;;;;;4082835;29;20056;-77
2024/01/27 09:26:04;;;;;;;12.60;6.30;;;2.80;90.00;;;;;;4082617;29;20450;-77
2024/01/27 09:28:06;;;;;;;9.40;5.85;;;2.90;89.70;;;;;;4082353;29;20107;-77
2024/01/27 09:30:09;;;;;;;14.65;5.95;;;2.90;89.60;;;;;;4083090;29;20482;-77
2024/01/27 09:32:12;;;;;;;13.82;6.45;;;2.90;89.70;;;;;;4082384;29;20486;-75
2024/01/27 09:34:15;;;;;;;12.05;6.38;;;3.00;89.40;;;;;;4082355;29;20055;-76
2024/01/27 09:36:17;;;;;;;12.52;6.38;;;3.00;89.40;;;;;;4083898;29;20096;-75
2024/01/27 09:38:18;;;;;;;9.95;5.70;;;2.80;89.90;;;;;;4085040;29;20064;-75
2024/01/27 09:40:20;;;;;;;13.80;6.40;;;2.70;90.40;;;;;;4084407;29;20048;-75
2024/01/27 09:42:22;;;;;;;11.88;6.70;;;2.70;90.50;;;;;;4085050;29;20051;-75
2024/01/27 09:44:27;;;;;;;9.93;6.60;;;2.60;90.80;;;;;;4085148;29;20103;-75
2024/01/27 09:46:30;;;;;;;12.00;5.82;;;2.60;90.80;;;;;;4083655;29;20090;-75
2024/01/27 09:48:33;;;;;;;12.63;6.45;;;2.80;90.50;;;;;;4082789;29;20108;-75
2024/01/27 09:50:37;;;;;;;11.50;6.57;;;2.80;90.30;;;;;;4084704;29;20051;-75
2024/01/27 09:52:39;;;;;;;13.30;6.47;;;2.80;90.40;;;;;;4080897;29;20466;-75
2024/01/27 09:54:41;;;;;;;15.50;6.20;;;2.80;90.50;;;;;;4081675;29;20111;-75
2024/01/27 09:56:47;;;;;;;12.00;6.50;;;2.80;90.60;;;;;;4085041;29;20043;-75
2024/01/27 09:58:50;;;;;;;11.90;6.50;;;2.80;90.70;;;;;;4084804;29;20048;-75
2024/01/27 10:00:53;;;;;;;11.05;6.57;;;2.80;90.70;;;;;;4089331;29;20311;-75
2024/01/27 10:02:56;;;;;;;11.35;6.50;;;2.80;91.00;;;;;;4101203;29;20055;-75
2024/01/27 10:04:57;;;;;;;11.55;6.32;;;2.90;91.10;;;;;;4099167;28;20513;-75
2024/01/27 10:07:00;;;;;;;14.77;6.68;;;2.90;91.20;;;;;;4101131;28;20067;-75
2024/01/27 10:09:02;;;;;;;12.75;6.43;;;3.10;90.80;;;;;;4100802;28;20051;-75
2024/01/27 10:11:09;;;;;;;10.77;6.32;;;3.10;90.90;;;;;;4100350;29;20080;-79
2024/01/27 10:13:15;;;;;;;13.25;6.28;;;3.10;90.70;;;;;;4093913;29;20110;-76
2024/01/27 10:15:21;;;;;;;10.55;6.05;;;3.10;90.70;;;;;;4098715;28;20497;-75
2024/01/27 10:17:23;;;;;;;;;;;3.20;90.50;;;;;;4100802;28;20050;-75
2024/01/27 10:19:25;;;;;;;12.60;6.07;;;3.30;90.60;;;;;;4100645;29;19927;-76
2024/01/27 10:21:27;;;;;;;13.80;6.20;;;3.40;90.10;;;;;;4100767;29;20057;-74
2024/01/27 10:23:30;;;;;;;13.18;6.47;;;3.40;89.40;;;;;;4100012;29;20059;-74
2024/01/27 10:25:38;;;;;;;12.93;5.95;;;3.50;89.40;;;;;;4100372;28;20051;-73
2024/01/27 10:27:40;;;;;;;13.57;6.45;;;3.60;88.60;;;;;;4100196;29;20056;-73
2024/01/27 10:29:41;;;;;;;9.50;5.97;;;3.60;88.00;;;;;;4100377;29;20118;-74
2024/01/27 10:31:43;;;;;;;12.20;6.00;;;3.60;88.10;;;;;;4098223;28;20055;-75
2024/01/27 10:33:52;;;;;;;13.40;6.35;;;3.60;87.80;;;;;;4099948;28;20448;-75
2024/01/27 10:35:59;;;;;;;13.65;6.00;;;3.70;87.70;;;;;;4100449;29;20082;-75
2024/01/27 10:38:01;;;;;;;10.32;6.07;;;3.70;87.20;;;;;;4100603;29;20051;-75
2024/01/27 10:40:07;;;;;;;16.38;6.22;;;3.70;87.30;;;;;;4100265;29;20082;-75
2024/01/27 10:42:11;;;;;;;14.95;6.93;;;3.80;87.60;;;;;;4100300;29;20052;-76
2024/01/27 10:44:15;;;;;;;14.15;6.15;;;3.80;87.30;;;;;;4099523;28;20079;-77
2024/01/27 10:46:19;;;;;;;10.45;5.80;;;3.80;87.10;;;;;;4100188;29;20090;-75
2024/01/27 10:48:21;;;;;;;11.00;5.68;;;3.90;86.50;;;;;;4099731;28;20489;-75
2024/01/27 10:50:24;;;;;;;12.52;5.93;;;4.00;86.80;;;;;;4100079;28;20047;-75
2024/01/27 10:52:30;;;;;;;10.07;5.63;;;4.00;86.50;;;;;;4099702;29;20047;-75
2024/01/27 10:54:36;;;;;;;13.43;5.95;;;4.10;86.20;;;;;;4100519;28;20047;-75
2024/01/27 10:56:39;;;;;;;;;;;4.20;85.80;;;;;;4094775;28;20043;-75
2024/01/27 10:58:42;;;;;;;9.60;5.43;;;4.20;85.10;;;;;;4099822;29;19922;-75
2024/01/27 11:00:45;;;;;;;11.82;5.25;;;4.30;85.20;;;;;;4100070;29;20058;-75
2024/01/27 11:02:52;;;;;;;11.98;5.38;;;4.30;84.80;;;;;;4099852;28;20553;-75
2024/01/27 11:04:54;;;;;;;12.80;5.63;;;4.40;85.70;;;;;;4099523;28;20043;-75
2024/01/27 11:06:56;;;;;;;16.92;5.90;;;4.40;85.50;;;;;;4099513;28;20585;-75
2024/01/27 11:09:00;;;;;;;10.85;5.25;;;4.50;85.30;;;;;;4095374;28;20135;-74
2024/01/27 11:11:02;;;;;;;12.93;5.60;;;4.60;84.90;;;;;;4099473;29;20044;-75
2024/01/27 11:13:06;;;;;;;14.18;5.18;;;4.60;84.50;;;;;;4099519;29;20429;-76
2024/01/27 11:15:08;;;;;;;13.00;5.93;;;4.70;84.70;;;;;;4099676;29;20044;-76
2024/01/27 11:17:10;;;;;;;14.20;6.78;;;4.80;85.10;;;;;;4099123;28;20102;-76
2024/01/27 11:19:13;;;;;;;11.15;5.40;;;4.80;84.60;;;;;;4099812;29;20043;-75
2024/01/27 11:21:15;;;;;;;11.75;6.40;;;4.80;84.10;;;;;;4097940;29;20051;-76
2024/01/27 11:23:17;;;;;;;13.73;6.38;;;4.90;83.70;;;;;;4098157;28;20046;-75
2024/01/27 11:25:20;;;;;;;12.00;6.32;;;4.90;83.30;;;;;;4099287;29;20047;-75
2024/01/27 11:27:29;;;;;;;12.93;6.22;;;4.90;83.40;;;;;;4098700;28;20047;-78
2024/01/27 11:29:34;;;;;;;12.77;5.80;;;5.00;83.70;;;;;;4099036;29;20047;-75
2024/01/27 11:31:36;;;;;;;13.13;6.03;;;5.10;84.30;;;;;;4100066;29;20069;-75
2024/01/27 11:33:42;;;;;;;11.35;5.97;;;5.10;84.10;;;;;;4099085;29;20456;-74
2024/01/27 11:35:44;;;;;;;15.73;6.35;;;5.20;83.40;;;;;;4098740;28;20049;-75
2024/01/27 11:37:47;;;;;;;14.93;5.85;;;5.30;83.80;;;;;;4098907;28;20043;-74
2024/01/27 11:39:49;;;;;;;13.57;5.28;;;5.30;83.40;;;;;;4092303;29;20075;-74
2024/01/27 11:41:51;;;;;;;12.48;5.00;;;5.30;83.30;;;;;;4092356;29;20043;-74
2024/01/27 11:43:54;;;;;;;12.15;4.82;;;5.40;83.30;;;;;;4092426;29;20110;-74
2024/01/27 11:45:58;;;;;;;11.00;5.10;;;5.40;83.30;;;;;;4093104;28;20059;-75
2024/01/27 11:48:01;;;;;;;12.23;5.50;;;5.50;83.40;;;;;;4099674;28;20087;-76
2024/01/27 11:50:04;;;;;;;10.40;5.32;;;5.50;83.50;;;;;;4098549;29;20130;-75
2024/01/27 11:52:08;;;;;;;12.95;5.65;;;5.60;83.50;;;;;;4099169;29;20043;-75
2024/01/27 11:54:09;;;;;;;14.15;5.60;;;5.70;83.50;;;;;;4098874;29;20663;-75
2024/01/27 11:56:11;;;;;;;12.43;5.28;;;5.70;82.80;;;;;;4098975;29;20050;-76
2024/01/27 11:58:12;;;;;;;11.38;4.95;;;5.80;83.00;;;;;;4097606;28;20055;-76
2024/01/27 12:00:15;;;;;;;12.55;5.70;;;5.90;83.20;;;;;;4098164;28;20122;-75
2024/01/27 12:02:18;;;;;;;17.65;7.40;;;5.90;82.30;;;;;;4094012;28;20051;-75
2024/01/27 12:04:21;;;;;;;16.70;6.18;;;6.00;82.10;;;;;;4091795;29;20055;-75
2024/01/27 12:06:23;;;;;;;16.52;6.30;;;6.10;82.40;;;;;;4098955;29;20059;-75
2024/01/27 12:08:25;;;;;;;12.90;6.00;;;6.20;81.70;;;;;;4098886;29;20058;-76
2024/01/27 12:10:27;;;;;;;17.85;5.95;;;6.20;80.70;;;;;;4092009;28;20047;-75
2024/01/27 12:12:28;;;;;;;10.50;5.78;;;6.30;80.90;;;;;;4098322;28;20559;-77
2024/01/27 12:14:39;;;;;;;12.73;5.75;;;6.40;80.30;;;;;;4098606;29;20051;-77
2024/01/27 12:16:44;;;;;;;16.98;5.57;;;6.50;79.10;;;;;;4092194;29;20130;-76
2024/01/27 12:18:47;;;;;;;12.13;5.13;;;6.60;79.50;;;;;;4098175;29;20098;-75
2024/01/27 12:20:48;;;;;;;12.00;5.97;;;6.70;79.30;;;;;;4098550;29;20043;-76
2024/01/27 12:22:52;;;;;;;12.77;5.53;;;6.80;77.40;;;;;;4096821;28;20051;-76
2024/01/27 12:24:55;;;;;;;13.93;5.65;;;6.80;77.80;;;;;;4093407;29;20058;-75
2024/01/27 12:26:57;;;;;;;12.55;5.20;;;7.00;78.10;;;;;;4098166;29;20111;-75
2024/01/27 12:29:00;;;;;;;12.52;5.47;;;7.10;77.60;;;;;;4098510;28;20497;-76
2024/01/27 12:31:05;;;;;;;12.55;5.32;;;7.30;76.40;;;;;;4092895;29;22128;-75
2024/01/27 12:33:13;;;;;;;16.35;5.68;;;7.40;76.40;;;;;;4097783;28;20114;-76
2024/01/27 12:35:16;;;;;;;11.82;4.93;;;7.60;74.70;;;;;;4098626;28;20043;-77
2024/01/27 12:37:18;;;;;;;11.68;4.43;;;7.70;73.70;;;;;;4098271;29;20098;-77
2024/01/27 12:39:22;;;;;;;12.45;4.90;;;7.80;74.20;;;;;;4098348;28;20386;-77
2024/01/27 12:41:25;;;;;;;11.10;4.95;;;8.00;73.80;;;;;;4098233;29;20051;-75
2024/01/27 12:43:27;;;;;;;12.57;4.80;;;8.20;72.70;;;;;;4097911;28;20047;-76
2024/01/27 12:45:28;;;;;;;12.32;5.15;;;8.30;72.60;;;;;;4098251;29;20110;-75
2024/01/27 12:47:29;;;;;;;18.77;5.10;;;8.50;71.70;;;;;;4097667;28;20146;-76
2024/01/27 12:49:31;;;;;;;13.00;4.80;;;8.60;70.50;;;;;;4097683;28;20091;-76
2024/01/27 12:51:34;;;;;;;8.43;4.05;;;8.80;69.20;;;;;;4095907;29;20051;-76
2024/01/27 12:53:38;;;;;;;9.43;3.72;;;9.00;69.10;;;;;;4096876;29;20051;-76
2024/01/27 12:55:39;;;;;;;12.65;4.25;;;9.40;67.90;;;;;;4098207;29;20264;-76
2024/01/27 12:57:41;;;;;;;12.25;4.65;;;9.60;64.40;;;;;;4097663;29;20043;-76
2024/01/27 12:59:43;;;;;;;10.65;4.25;;;9.80;63.50;;;;;;4096867;29;20039;-76
2024/01/27 13:01:45;;;;;;;12.05;4.30;;;10.00;62.80;;;;;;4097167;29;20125;-76
2024/01/27 13:03:47;;;;;;;11.52;4.32;;;10.20;63.90;;;;;;4092170;29;20103;-76
2024/01/27 13:05:49;;;;;;;11.68;4.03;;;10.60;63.00;;;;;;4097564;29;20533;-76
2024/01/27 13:07:52;;;;;;;9.90;4.20;;;11.00;61.60;;;;;;4098158;29;20113;-76
2024/01/27 13:09:54;;;;;;;10.77;4.15;;;11.30;59.50;;;;;;4098153;28;20452;-76
2024/01/27 13:11:56;;;;;;;7.85;4.00;;;11.90;57.10;;;;;;4099877;29;20047;-76
2024/01/27 13:13:58;;;;;;;8.75;4.20;;;12.70;55.60;;;;;;4101593;29;20477;-76
2024/01/27 13:16:00;;;;;;;9.60;4.68;;;15.70;50.90;;;;;;4101431;29;20051;-76
2024/01/27 13:18:01;;;;;;;9.88;4.40;;;19.50;42.30;;;;;;4095242;29;20448;-76
2024/01/27 13:20:05;;;;;;;11.52;4.15;;;22.00;36.80;;;;;;4101877;29;20055;-76
2024/01/27 13:22:07;;;;;;;9.57;4.32;;;23.80;32.40;;;;;;4101155;29;20094;-76
2024/01/27 13:24:10;;;;;;;11.15;4.53;;;25.50;30.50;;;;;;4095206;29;20489;-77
2024/01/27 13:26:12;;;;;;;8.82;4.35;;;26.80;27.70;;;;;;4101203;29;20082;-76
2024/01/27 13:28:14;;;;;;;9.85;4.40;;;28.00;27.30;;;;;;4101791;29;20043;-76
2024/01/27 13:30:17;;;;;;;10.88;4.43;;;29.40;25.60;;;;;;4101305;29;20059;-76
2024/01/27 13:32:19;;;;;;;10.52;4.38;;;30.40;24.50;;;;;;4101414;29;20082;-76
2024/01/27 13:34:20;;;;;;;10.40;4.32;;;30.80;23.60;;;;;;4101426;29;20103;-76
2024/01/27 13:36:22;;;;;;;12.35;4.57;;;31.80;23.00;;;;;;4101198;29;20098;-78
2024/01/27 13:38:26;;;;;;;8.27;4.22;;;31.40;22.30;;;;;;4101186;29;20047;-76
2024/01/27 13:40:29;;;;;;;11.18;4.68;;;32.40;22.20;;;;;;4105902;28;20093;-79
2024/01/27 13:42:30;;;;;;;9.40;4.65;;;33.00;20.70;;;;;;4101971;29;20541;-78
2024/01/27 13:44:35;;;;;;;8.43;4.30;;;33.70;20.80;;;;;;4101825;29;20047;-81
2024/01/27 13:46:36;;;;;;;9.40;4.40;;;34.30;20.40;;;;;;4094523;28;20106;-84
2024/01/27 13:48:38;;;;;;;9.45;4.45;;;35.00;19.70;;;;;;4098128;28;20043;-79
2024/01/27 13:50:40;;;;;;;9.80;4.40;;;35.30;19.30;;;;;;4097315;28;20050;-79
2024/01/27 13:52:45;;;;;;;10.10;4.30;;;34.50;19.60;;;;;;4100696;28;20413;-77
2024/01/27 13:54:47;;;;;;;10.00;4.30;;;35.20;19.00;;;;;;4100944;29;20047;-76
2024/01/27 13:56:50;;;;;;;10.40;4.13;;;35.40;18.70;;;;;;4100338;28;20051;-77
2024/01/27 13:58:53;;;;;;;10.85;4.20;;;36.10;18.40;;;;;;4100300;29;20043;-77
2024/01/27 14:00:55;;;;;;;9.00;4.45;;;36.70;18.20;;;;;;4100099;29;20150;-77
2024/01/27 14:02:57;;;;;;;10.57;4.05;;;36.70;18.00;;;;;;4094070;28;20055;-78
2024/01/27 14:04:58;;;;;;;10.10;4.28;;;37.50;17.60;;;;;;4100705;28;20044;-81
2024/01/27 14:07:02;;;;;;;8.18;3.88;;;37.90;17.20;;;;;;4100368;29;20047;-80
2024/01/27 14:09:04;;;;;;;8.82;4.10;;;37.90;17.00;;;;;;4100353;28;20051;-81
2024/01/27 14:11:06;;;;;;;9.95;4.25;;;38.30;16.90;;;;;;4100603;29;20401;-79
2024/01/27 14:13:09;;;;;;;6.45;3.60;;;38.70;16.50;;;;;;4100276;28;20075;-77
2024/01/27 14:15:12;;;;;;;8.75;3.92;;;38.90;16.40;;;;;;4100273;28;20134;-77
2024/01/27 14:17:13;;;;;;;8.40;3.63;;;39.30;16.00;;;;;;4100903;29;20055;-77
2024/01/27 14:19:15;;;;;;;8.20;3.67;;;39.70;16.00;;;;;;4100225;29;20548;-76
2024/01/27 14:21:17;;;;;;;6.55;3.40;;;39.10;15.90;;;;;;4100109;28;20428;-77
2024/01/27 14:23:19;;;;;;;10.10;3.83;;;39.00;15.60;;;;;;4098867;28;20113;-77
2024/01/27 14:25:21;;;;;;;7.35;3.28;;;38.70;15.40;;;;;;4099894;29;20051;-77
2024/01/27 14:27:25;;;;;;;8.45;3.30;;;38.90;15.40;;;;;;4100664;29;20078;-77
2024/01/27 14:29:28;;;;;;;8.95;3.28;;;38.90;15.70;;;;;;4100385;29;20047;-78
2024/01/27 14:31:31;;;;;;;9.32;3.70;;;38.20;15.70;;;;;;4100433;29;20047;-77
2024/01/27 14:33:34;;;;;;;8.05;3.47;;;38.20;15.60;;;;;;4100090;29;20051;-77
2024/01/27 14:35:35;;;;;;;6.82;3.40;;;38.40;15.30;;;;;;4100111;28;20047;-77
2024/01/27 14:37:37;;;;;;;9.60;3.95;;;38.40;15.50;;;;;;4100321;29;20047;-77
2024/01/27 14:39:41;;;;;;;8.73;4.05;;;38.10;15.60;;;;;;4094914;28;20500;-78
2024/01/27 14:41:43;;;;;;;7.45;4.55;;;37.80;15.60;;;;;;4100300;29;20058;-77
2024/01/27 14:43:44;;;;;;;9.60;5.28;;;37.80;15.70;;;;;;4100429;29;20481;-77
2024/01/27 14:45:48;;;;;;;8.02;6.20;;;37.30;15.70;;;;;;4100072;29;20050;-75
2024/01/27 14:47:50;;;;;;;8.35;4.90;;;37.10;15.90;;;;;;4098472;28;20051;-77
2024/01/27 14:49:51;;;;;;;9.18;6.90;;;36.10;16.10;;;;;;4100553;28;20051;-76
2024/01/27 14:51:53;;;;;;;11.18;6.90;;;35.80;16.70;;;;;;4100055;28;20102;-77
2024/01/27 14:53:56;;;;;;;11.90;7.85;;;35.70;16.60;;;;;;4100367;29;20459;-75
2024/01/27 14:55:58;;;;;;;13.48;8.57;;;35.70;16.40;;;;;;4097825;29;20052;-76
2024/01/27 14:57:59;;;;;;;12.93;8.82;;;36.30;16.60;;;;;;4100403;29;20063;-79
2024/01/27 15:00:01;;;;;;;17.88;9.75;;;36.20;16.50;;;;;;4099969;28;20055;-78
2024/01/27 15:02:05;;;;;;;11.20;9.82;;;35.20;16.70;;;;;;4085444;29;20103;-77
2024/01/27 15:04:07;;;;;;;12.50;8.10;;;34.60;17.20;;;;;;4083856;29;20112;-78
2024/01/27 15:06:10;;;;;;;12.73;5.57;;;33.70;17.50;;;;;;4083224;29;20111;-77
2024/01/27 15:08:12;;;;;;;13.63;5.95;;;31.90;18.20;;;;;;4077881;29;20066;-76
2024/01/27 15:10:14;;;;;;;13.32;5.85;;;31.40;18.90;;;;;;4083600;29;20178;-77
2024/01/27 15:12:16;;;;;;;12.52;6.75;;;31.10;19.20;;;;;;4083786;29;20486;-78
2024/01/27 15:14:18;;;;;;;18.00;8.80;;;30.70;19.30;;;;;;4083628;29;20048;-78
2024/01/27 15:16:21;;;;;;;16.15;7.82;;;30.10;19.80;;;;;;4083710;29;20098;-77
2024/01/27 15:18:24;;;;;;;10.05;5.32;;;29.80;20.60;;;;;;4083377;29;20066;-77
2024/01/27 15:20:26;;;;;;;8.95;4.70;;;29.30;19.70;;;;;;4083815;29;20052;-77
2024/01/27 15:22:28;;;;;;;9.75;4.80;;;29.10;20.00;;;;;;4083171;29;20048;-78
2024/01/27 15:24:33;;;;;;;11.05;4.60;;;29.10;20.00;;;;;;4083741;29;20181;-78
2024/01/27 15:26:35;;;;;;;10.57;4.53;;;29.20;19.80;;;;;;4083588;29;20111;-77
2024/01/27 15:28:37;;;;;;;10.68;4.30;;;29.20;19.90;;;;;;4084484;29;20178;-78
2024/01/27 15:30:38;;;;;;;13.90;5.53;;;28.70;20.80;;;;;;4083141;29;20107;-78
2024/01/27 15:32:41;;;;;;;9.85;4.78;;;28.30;21.20;;;;;;4083830;29;20107;-78
2024/01/27 15:34:44;;;;;;;8.55;4.25;;;28.20;21.40;;;;;;4081807;29;20087;-78
2024/01/27 15:36:46;;;;;;;9.18;4.18;;;27.60;21.40;;;;;;4083791;29;20073;-77
2024/01/27 15:38:48;;;;;;;11.00;3.92;;;26.60;22.00;;;;;;4083193;29;20119;-77
2024/01/27 15:40:50;;;;;;;8.07;3.80;;;25.50;22.90;;;;;;4083622;29;20043;-77
2024/01/27 15:42:51;;;;;;;8.80;4.05;;;24.20;24.10;;;;;;4083418;29;20458;-78
2024/01/27 15:44:53;;;;;;;7.72;3.83;;;23.40;25.10;;;;;;4082991;29;20114;-79
2024/01/27 15:46:56;;;;;;;10.93;4.25;;;22.70;25.80;;;;;;4083057;29;20048;-78
2024/01/27 15:48:58;;;;;;;12.10;4.78;;;22.70;26.30;;;;;;4080899;29;20142;-78
2024/01/27 15:51:01;;;;;;;9.85;3.60;;;22.40;26.70;;;;;;4083935;29;20473;-79
2024/01/27 15:53:03;;;;;;;10.07;4.30;;;21.80;27.50;;;;;;4076691;29;20167;-78
2024/01/27 15:55:07;;;;;;;9.60;4.28;;;20.70;28.60;;;;;;4076615;29;20450;-78
2024/01/27 15:57:09;;;;;;;11.55;4.40;;;19.40;30.40;;;;;;4077140;29;20377;-79
2024/01/27 15:59:11;;;;;;;9.02;3.95;;;18.40;32.70;;;;;;4083384;29;20080;-77
2024/01/27 16:01:12;;;;;;;11.57;4.60;;;17.50;33.90;;;;;;4086649;28;20063;-75
2024/01/27 16:03:15;;;;;;;9.27;3.80;;;16.80;35.30;;;;;;4093350;28;20043;-78
2024/01/27 16:05:19;;;;;;;8.57;3.80;;;16.30;37.10;;;;;;4096739;28;20047;-78
2024/01/27 16:07:23;;;;;;;8.07;3.92;;;15.80;38.30;;;;;;4097330;29;20047;-78
2024/01/27 16:09:25;;;;;;;11.52;4.40;;;15.40;39.10;;;;;;4096981;29;20054;-79
2024/01/27 16:11:27;;;;;;;12.68;4.70;;;15.00;40.20;;;;;;4096566;29;20102;-78
2024/01/27 16:13:28;;;;;;;12.05;5.18;;;14.60;41.10;;;;;;4097021;28;20449;-78
2024/01/27 16:15:30;;;;;;;12.95;4.75;;;14.30;41.70;;;;;;4096449;29;20055;-78
2024/01/27 16:17:31;;;;;;;15.10;6.40;;;13.90;42.40;;;;;;4096572;28;20055;-79
2024/01/27 16:19:33;;;;;;;15.55;6.28;;;13.70;43.00;;;;;;4096830;29;20083;-79
2024/01/27 16:21:35;;;;;;;10.65;4.72;;;13.40;43.40;;;;;;4096521;29;20110;-79
2024/01/27 16:23:38;;;;;;;12.05;4.68;;;13.10;44.00;;;;;;4096510;28;20098;-79
2024/01/27 16:25:40;;;;;;;10.93;4.28;;;12.90;44.40;;;;;;4096517;29;20460;-78
2024/01/27 16:27:42;;;;;;;9.30;3.83;;;12.50;45.30;;;;;;4096700;29;20074;-78
2024/01/27 16:29:44;;;;;;;9.90;3.60;;;12.20;46.10;;;;;;4096175;29;20122;-78
2024/01/27 16:31:46;;;;;;;11.20;3.40;;;12.00;47.00;;;;;;4097046;29;20054;-79
2024/01/27 16:33:48;;;;;;;9.30;3.17;;;11.80;48.30;;;;;;4096975;28;20047;-78
2024/01/27 16:35:50;;;;;;;8.65;3.33;;;11.60;49.00;;;;;;4096212;28;20051;-78
2024/01/27 16:37:51;;;;;;;10.70;3.50;;;11.40;49.50;;;;;;4096387;29;20047;-79
2024/01/27 16:39:54;;;;;;;13.20;4.05;;;11.00;50.10;;;;;;4096350;29;20147;-80